Eeklo, Belgium
Current Conditions -  °F | °C
As of 7:25 AM on Saturday 25 Oct 2014 (Local Time) from EHFS Reporting Station
Haze Haze  
Wind Chill: 13°   Ceiling: 700
Heat Index: 13°   Visibility: 2.6mi
Dew Point: 13°   Wind: 10mph
Humidity: 100%   Direction: 220°SW
Pressure: 30"   Gusts: NA
Location:  51.19°N, 3.56°E
Report Text: EHFS 250525Z AUTO 22009KT 4300 BR SCT003/// BKN007/// BKN008///13/13 Q1016
Loading
Personal Weather Stations






























Interactive Weather Map
Tropical Storm Tracking
New forecast layout! Learn more

10-Day Weather Forecast

Advertisements
Track Severe Weather on mobile